Swan Valley, Idaho
Current Conditions -  °F | °C
As of 9:56 AM on Sunday 21 Dec 2014 (Local Time) from KDIJ Reporting Station
Broken Clouds Broken Clouds  
Wind Chill: 27°   Ceiling: 6000
Heat Index: 37°   Visibility: 10mi
Dew Point: 32°   Wind: 18mph
Humidity: 83%   Direction: 250°WSW
Pressure: 29.72"   Gusts: 31mph
Location:  43.46°N, 111.34°W
Report Text: KDIJ 211656Z AUTO 25016G27KT 10SM SCT022 BKN060 03/00 A2972 RMK AO2 T00270000 BKN V SCT PK WND 25027/1653 SLP045
Loading
Personal Weather Stations






























Interactive Weather Map New forecast layout! Learn more

10-Day Weather Forecast

Advertisements
Track Severe Weather on mobile